Time;durP1;ratioP1;P1;durP2;ratioP2;P2;SDS_P1;SDS_P2;PMS_P1;PMS_P2;Temp;Humidity;BMP_temperature;BMP_pressure;BME280_temperature;BME280_humidity;BME280_pressure;Samples;Min_cycle;Max_cycle;Signal;HPM_P1;HPM_P2
2023/09/25 00:00:36;;;;;;;1.83;1.40;;;;;;;21.12;nan;52086.91;5034430;28;20253;-61
2023/09/25 00:03:03;;;;;;;1.10;1.00;;;;;;;21.27;nan;53047.13;5034227;28;20592;-60
2023/09/25 00:05:29;;;;;;;1.20;1.10;;;;;;;21.08;nan;52373.69;5034102;28;20179;-61
2023/09/25 00:07:55;;;;;;;1.58;1.08;;;;;;;21.26;nan;52600.28;5034469;28;20175;-60
2023/09/25 00:10:21;;;;;;;1.73;1.00;;;;;;;21.13;nan;52780.25;5034491;28;20182;-61
2023/09/25 00:12:47;;;;;;;1.27;1.17;;;;;;;21.37;nan;53368.16;5034036;28;20271;-61
2023/09/25 00:15:13;;;;;;;1.15;1.02;;;;;;;21.16;nan;54408.09;5034537;28;20264;-61
2023/09/25 00:17:40;;;;;;;1.67;1.17;;;;;;;21.32;nan;53617.28;5034102;28;20183;-61
2023/09/25 00:20:10;;;;;;;0.82;0.82;;;;;;;21.12;nan;52857.03;5034107;28;20258;-61
2023/09/25 00:22:36;;;;;;;1.17;1.08;;;;;;;21.09;nan;53087.28;5034108;28;20234;-61
2023/09/25 00:25:01;;;;;;;1.67;1.30;;;;;;;21.33;nan;53610.50;5033695;28;20203;-60
2023/09/25 00:27:26;;;;;;;1.45;1.02;;;;;;;21.32;nan;54102.19;5033300;28;20178;-60
2023/09/25 00:29:52;;;;;;;2.40;1.38;;;;;;;21.10;nan;53655.41;5033733;28;20639;-62
2023/09/25 00:32:17;;;;;;;1.02;0.95;;;;;;;21.18;nan;54028.47;5033658;28;20241;-60
2023/09/25 00:34:42;;;;;;;1.65;1.25;;;;;;;21.18;nan;53738.59;5034018;28;20172;-61
2023/09/25 00:37:08;;;;;;;1.33;1.00;;;;;;;21.32;nan;54587.69;5033443;28;20167;-61
2023/09/25 00:39:33;;;;;;;1.48;1.15;;;;;;;21.10;nan;54511.41;5033707;28;20572;-61
2023/09/25 00:41:59;;;;;;;0.98;0.88;;;;;;;21.28;nan;53807.75;5033112;28;20156;-61
2023/09/25 00:44:25;;;;;;;1.67;1.30;;;;;;;21.24;nan;53487.44;5033843;28;20162;-60
2023/09/25 00:46:50;;;;;;;0.85;0.85;;;;;;;21.06;nan;52651.56;5033810;28;20167;-61
2023/09/25 00:49:16;;;;;;;1.15;1.05;;;;;;;21.05;nan;52741.28;5033499;28;20179;-61
2023/09/25 00:51:44;;;;;;;0.93;0.90;;;;;;;21.30;nan;54111.06;5033834;28;20171;-62
2023/09/25 00:54:10;;;;;;;1.15;1.05;;;;;;;21.30;nan;54533.31;5033169;28;20175;-61
2023/09/25 00:56:36;;;;;;;1.48;1.23;;;;;;;21.21;nan;53728.16;5032749;28;20215;-61
2023/09/25 00:59:01;;;;;;;1.65;1.40;;;;;;;20.99;nan;53146.84;5032904;28;20610;-61
2023/09/25 01:01:27;;;;;;;1.20;1.10;;;;;;;21.10;nan;52325.94;5033084;28;20163;-61
2023/09/25 01:03:52;;;;;;;0.88;0.88;;;;;;;21.19;nan;52772.22;5031407;28;20218;-61
2023/09/25 01:06:18;;;;;;;1.27;0.93;;;;;;;20.94;nan;52403.53;5032949;28;20175;-60
2023/09/25 01:08:43;;;;;;;1.30;1.00;;;;;;;20.91;nan;52146.75;5032518;28;20183;-61
2023/09/25 01:11:09;;;;;;;1.48;1.38;;;;;;;21.01;nan;51403.22;5040161;28;20546;-61
2023/09/25 01:13:35;;;;;;;3.08;1.45;;;;;;;21.03;nan;51588.56;5042328;28;20186;-61
2023/09/25 01:16:01;;;;;;;1.20;1.10;;;;;;;20.90;nan;51216.06;5032574;28;20172;-60
2023/09/25 01:18:27;;;;;;;1.75;1.20;;;;;;;21.10;nan;50958.13;5047808;28;20166;-60
2023/09/25 01:20:52;;;;;;;1.20;1.10;;;;;;;21.09;nan;51350.84;5052066;28;20236;-60
2023/09/25 01:23:18;;;;;;;1.52;1.02;;;;;;;21.17;nan;52093.91;5052528;28;20191;-59
2023/09/25 01:25:43;;;;;;;2.60;1.40;;;;;;;21.03;nan;53273.13;5052290;28;20171;-60
2023/09/25 01:28:09;;;;;;;1.88;1.23;;;;;;;21.31;nan;54435.75;5052087;28;20699;-61
2023/09/25 01:30:35;;;;;;;1.55;1.30;;;;;;;21.16;nan;54182.53;5052416;28;20167;-61
2023/09/25 01:33:00;;;;;;;1.63;1.15;;;;;;;20.95;nan;53723.31;5052356;28;20182;-60
2023/09/25 01:35:26;;;;;;;1.38;1.08;;;;;;;21.15;nan;53629.81;5052121;28;20224;-61
2023/09/25 01:37:57;;;;;;;1.20;1.10;;;;;;;21.10;nan;53528.88;5052128;28;20171;-61
2023/09/25 01:40:24;;;;;;;1.10;1.00;;;;;;;20.94;nan;54114.16;5051439;28;20554;-61
2023/09/25 01:42:49;;;;;;;1.65;1.17;;;;;;;21.03;nan;54351.34;5050585;28;20754;-62
2023/09/25 01:45:17;;;;;;;2.67;1.63;;;;;;;21.03;nan;52839.88;5051792;28;20174;-60
2023/09/25 01:47:48;;;;;;;1.15;1.00;;;;;;;20.96;nan;53351.16;5051909;28;20283;-60
2023/09/25 01:50:15;;;;;;;0.90;0.90;;;;;;;21.09;nan;54002.25;5051852;28;20171;-61
2023/09/25 01:52:40;;;;;;;1.10;1.00;;;;;;;20.84;nan;53329.34;5051833;28;20167;-61
2023/09/25 01:55:06;;;;;;;1.17;1.10;;;;;;;20.90;nan;54032.38;5051435;28;20175;-60
2023/09/25 01:57:32;;;;;;;1.67;0.90;;;;;;;20.87;nan;53822.06;5052085;28;20682;-62
2023/09/25 01:59:58;;;;;;;1.45;1.00;;;;;;;20.80;nan;53198.44;5051353;28;20223;-60
2023/09/25 02:02:23;;;;;;;0.88;0.88;;;;;;;20.84;nan;53416.94;5051170;28;20202;-62
2023/09/25 02:04:49;;;;;;;1.00;1.00;;;;;;;20.91;nan;52887.59;5051732;28;20155;-61
2023/09/25 02:07:15;;;;;;;1.60;1.20;;;;;;;20.95;nan;52752.13;5051662;28;20200;-61
2023/09/25 02:09:41;;;;;;;1.30;1.20;;;;;;;20.96;nan;53253.19;5050416;28;20199;-61
2023/09/25 02:12:06;;;;;;;1.77;1.02;;;;;;;20.77;nan;53374.19;5051448;28;20202;-60
2023/09/25 02:14:33;;;;;;;1.75;1.30;;;;;;;21.01;nan;54421.91;5051516;28;20167;-61
2023/09/25 02:16:58;;;;;;;2.15;1.50;;;;;;;20.94;nan;54230.81;5051811;28;20186;-62
2023/09/25 02:19:25;;;;;;;3.30;1.42;;;;;;;21.03;nan;54044.97;5051522;28;20166;-61
2023/09/25 02:21:51;;;;;;;1.50;1.25;;;;;;;21.04;nan;54212.38;5050983;28;20162;-61
2023/09/25 02:24:16;;;;;;;1.20;1.10;;;;;;;20.98;nan;53869.38;5051273;28;20204;-60
2023/09/25 02:26:42;;;;;;;1.17;1.08;;;;;;;20.88;nan;53797.16;5051468;28;20253;-60
2023/09/25 02:29:07;;;;;;;0.93;0.93;;;;;;;21.09;nan;54401.50;5051601;28;20177;-61
2023/09/25 02:31:32;;;;;;;1.40;1.20;;;;;;;21.09;nan;54795.09;5051654;28;20163;-61
2023/09/25 02:33:58;;;;;;;1.45;1.20;;;;;;;21.04;nan;55399.34;5051415;28;20189;-61
2023/09/25 02:36:24;;;;;;;1.63;1.00;;;;;;;21.05;nan;54347.69;5051118;28;20646;-61
2023/09/25 02:38:49;;;;;;;1.67;1.10;;;;;;;20.79;nan;54575.34;5051114;28;20170;-60
2023/09/25 02:41:15;;;;;;;1.38;1.25;;;;;;;20.97;nan;54588.44;5051324;28;20235;-61
2023/09/25 02:43:40;;;;;;;1.50;1.33;;;;;;;21.03;nan;54688.38;5051268;28;20494;-60
2023/09/25 02:46:06;;;;;;;1.25;1.15;;;;;;;20.98;nan;54599.81;5051331;28;20239;-61
2023/09/25 02:48:31;;;;;;;1.35;1.25;;;;;;;20.95;nan;54734.66;5051197;28;20202;-61
2023/09/25 02:50:57;;;;;;;1.20;1.00;;;;;;;20.96;nan;54489.41;5051526;28;20181;-61
2023/09/25 02:53:22;;;;;;;1.13;1.00;;;;;;;20.94;nan;54396.69;5050617;28;20606;-60
2023/09/25 02:55:51;;;;;;;1.42;1.30;;;;;;;20.81;nan;53813.44;5050999;28;20225;-62
2023/09/25 02:58:17;;;;;;;2.22;1.30;;;;;;;20.87;nan;53472.25;5051353;28;20173;-61
2023/09/25 03:00:42;;;;;;;0.80;0.80;;;;;;;20.86;nan;53097.66;5051130;28;20175;-61
2023/09/25 03:03:08;;;;;;;1.23;1.02;;;;;;;20.67;nan;53608.22;5051252;28;20186;-61
2023/09/25 03:05:33;;;;;;;1.67;1.58;;;;;;;20.66;nan;53132.75;5051472;28;20309;-62
2023/09/25 03:07:59;;;;;;;2.58;1.00;;;;;;;20.78;nan;53527.53;5051134;28;20254;-62
2023/09/25 03:10:24;;;;;;;1.73;1.27;;;;;;;20.83;nan;53942.41;5051083;28;20194;-62
2023/09/25 03:12:50;;;;;;;1.48;1.02;;;;;;;20.56;nan;53335.16;5051217;28;20175;-61
2023/09/25 03:15:15;;;;;;;2.28;1.75;;;;;;;20.76;nan;52883.16;5054863;28;20640;-60
2023/09/25 03:17:40;;;;;;;1.42;0.80;;;;;;;20.66;nan;52374.00;5054753;28;20175;-62
2023/09/25 03:20:16;;;;;;;1.42;1.15;;;;;;;20.53;nan;53454.38;5054642;28;20174;-61
2023/09/25 03:22:43;;;;;;;1.60;1.38;;;;;;;20.50;nan;53311.56;5054569;28;20201;-61
2023/09/25 03:25:08;;;;;;;1.25;1.15;;;;;;;20.42;nan;52363.44;5036143;28;20658;-61
2023/09/25 03:27:34;;;;;;;1.25;1.00;;;;;;;20.41;nan;51684.91;5051238;28;20179;-61
2023/09/25 03:30:00;;;;;;;0.88;0.88;;;;;;;20.31;nan;50622.34;5034519;28;20527;-62
2023/09/25 03:32:25;;;;;;;1.35;1.00;;;;;;;20.57;nan;50491.84;5041911;28;20240;-60
2023/09/25 03:34:50;;;;;;;1.90;1.33;;;;;;;20.37;nan;50558.22;5051850;28;20162;-61
2023/09/25 03:37:16;;;;;;;1.13;1.05;;;;;;;20.45;nan;51155.22;5031833;28;20183;-61
2023/09/25 03:39:41;;;;;;;1.92;1.13;;;;;;;20.36;nan;50536.09;5032021;28;20186;-61
2023/09/25 03:42:07;;;;;;;1.58;1.08;;;;;;;20.50;nan;51470.56;5032946;28;20191;-60
2023/09/25 03:44:32;;;;;;;1.55;1.20;;;;;;;20.29;nan;51464.19;5033680;28;20194;-60
2023/09/25 03:46:58;;;;;;;1.05;0.95;;;;;;;20.47;nan;50958.41;5039805;28;20175;-61
2023/09/25 03:49:23;;;;;;;1.65;1.05;;;;;;;20.32;nan;51057.88;5033308;28;20187;-60
2023/09/25 03:51:48;;;;;;;1.17;1.10;;;;;;;20.31;nan;52218.59;5031695;28;20619;-60
2023/09/25 03:54:14;;;;;;;1.45;1.10;;;;;;;20.47;nan;51343.94;5038061;28;20182;-61
2023/09/25 03:56:39;;;;;;;1.67;1.27;;;;;;;20.48;nan;51108.97;5032612;28;20227;-61
2023/09/25 03:59:05;;;;;;;1.00;0.90;;;;;;;20.23;nan;49971.31;5031981;28;20183;-60
2023/09/25 04:01:30;;;;;;;2.67;1.20;;;;;;;20.26;nan;49824.16;5040092;28;20577;-60
2023/09/25 04:03:56;;;;;;;1.33;1.10;;;;;;;20.58;nan;50764.00;5034782;28;20304;-61
2023/09/25 04:06:21;;;;;;;1.48;1.38;;;;;;;20.40;nan;50517.09;5031478;28;20194;-60
2023/09/25 04:08:47;;;;;;;1.38;1.20;;;;;;;20.54;nan;50054.34;5039965;28;20192;-60
2023/09/25 04:11:12;;;;;;;1.52;1.10;;;;;;;20.41;nan;49925.72;5031932;28;20345;-61
2023/09/25 04:13:40;;;;;;;3.25;1.70;;;;;;;20.56;nan;49564.25;5032399;28;20198;-61
2023/09/25 04:16:06;;;;;;;1.17;1.08;;;;;;;20.58;nan;51408.38;5031873;28;20198;-61
2023/09/25 04:18:32;;;;;;;1.20;1.10;;;;;;;20.63;nan;51043.09;5034941;28;20187;-61
2023/09/25 04:21:02;;;;;;;1.50;1.40;;;;;;;20.56;nan;50024.72;5044298;28;20198;-61
2023/09/25 04:23:28;;;;;;;1.27;1.17;;;;;;;20.29;nan;48301.25;5044104;28;20199;-61
2023/09/25 04:26:00;;;;;;;1.17;1.05;;;;;;;20.46;nan;47670.06;5038317;28;20171;-61
2023/09/25 04:28:29;;;;;;;1.33;0.90;;;;;;;20.46;nan;47365.50;5032940;28;20178;-62
2023/09/25 04:30:59;;;;;;;1.65;1.35;;;;;;;20.49;nan;47471.13;5035369;28;20244;-61
2023/09/25 04:33:26;;;;;;;1.77;1.40;;;;;;;20.53;nan;47834.50;5039241;28;20174;-61
2023/09/25 04:35:58;;;;;;;1.45;1.35;;;;;;;20.53;nan;47859.91;5042475;28;20775;-60
2023/09/25 04:38:25;;;;;;;1.25;1.00;;;;;;;20.37;nan;48186.63;5043393;28;20159;-60
2023/09/25 04:40:50;;;;;;;2.63;1.40;;;;;;;20.55;nan;48678.78;5042689;28;20317;-61
2023/09/25 04:43:17;;;;;;;1.65;1.08;;;;;;;19.74;nan;48987.59;5041729;28;20285;-61
2023/09/25 04:45:43;;;;;;;1.38;1.00;;;;;;;20.70;nan;50455.00;5034569;28;20596;-61
2023/09/25 04:48:09;;;;;;;1.20;1.00;;;;;;;20.65;nan;51089.50;5031207;28;20666;-60
2023/09/25 04:50:36;;;;;;;1.67;1.15;;;;;;;20.77;nan;52329.91;5032074;28;20213;-60
2023/09/25 04:53:03;;;;;;;1.08;0.95;;;;;;;20.76;nan;51640.16;5032215;28;20183;-59
2023/09/25 04:55:29;;;;;;;1.42;1.10;;;;;;;20.74;nan;52467.28;5031804;28;20179;-60
2023/09/25 04:57:54;;;;;;;1.15;1.05;;;;;;;20.73;nan;52404.16;5036152;28;20556;-60
2023/09/25 05:00:27;;;;;;;1.60;1.10;;;;;;;20.83;nan;52830.47;5045811;28;20269;-60
2023/09/25 05:02:54;;;;;;;1.52;1.38;;;;;;;20.85;nan;53535.03;5032168;28;20305;-61
2023/09/25 05:05:20;;;;;;;1.52;1.20;;;;;;;20.72;nan;54195.63;5044664;28;20175;-60
2023/09/25 05:07:47;;;;;;;1.48;1.25;;;;;;;;;;5052293;28;20663;-60
2023/09/25 05:10:14;;;;;;;1.48;1.00;;;;;;;20.58;nan;53567.63;5051859;28;20257;-60
2023/09/25 05:12:40;;;;;;;1.23;1.05;;;;;;;20.76;nan;53235.41;5052468;28;20612;-60
2023/09/25 05:15:07;;;;;;;3.00;1.77;;;;;;;20.77;nan;53532.22;5052114;28;20177;-60
2023/09/25 05:17:43;;;;;;;1.42;1.20;;;;;;;20.47;nan;51610.00;5051881;28;20661;-60
2023/09/25 05:20:11;;;;;;;3.80;1.80;;;;;;;20.41;nan;49330.44;5052128;28;20705;-60
2023/09/25 05:22:37;;;;;;;1.92;1.35;;;;;;;20.67;nan;51606.03;5045723;28;20202;-60
2023/09/25 05:25:04;;;;;;;1.10;0.98;;;;;;;20.84;nan;53093.13;5040116;28;20182;-61
2023/09/25 05:27:30;;;;;;;1.80;1.45;;;;;;;20.84;nan;54393.81;5040980;28;20179;-59
2023/09/25 05:29:57;;;;;;;1.52;1.20;;;;;;;20.68;nan;54419.56;5031917;28;20214;-60
2023/09/25 05:32:23;;;;;;;2.60;1.20;;;;;;;20.83;nan;54792.44;5047765;28;20198;-63
2023/09/25 05:34:48;;;;;;;2.40;1.05;;;;;;;20.51;nan;53330.19;5052010;28;20175;-60
2023/09/25 05:37:14;;;;;;;1.70;1.60;;;;;;;20.80;nan;53936.81;5051157;28;20167;-60
2023/09/25 05:39:39;;;;;;;1.42;1.33;;;;;;;20.56;nan;53762.97;5051791;28;20246;-60
2023/09/25 05:42:04;;;;;;;1.33;1.23;;;;;;;20.82;nan;55141.31;5051434;28;20630;-61
2023/09/25 05:44:30;;;;;;;1.73;1.40;;;;;;;20.65;nan;55564.44;5052078;28;20175;-60
2023/09/25 05:46:56;;;;;;;1.67;1.25;;;;;;;20.66;nan;54599.44;5051785;28;20163;-60
2023/09/25 05:49:21;;;;;;;1.30;1.20;;;;;;;20.70;nan;55691.44;5051937;28;20182;-60
2023/09/25 05:51:53;;;;;;;2.25;1.10;;;;;;;20.54;nan;55330.78;5051785;28;20186;-60
2023/09/25 05:54:19;;;;;;;0.90;0.88;;;;;;;20.65;nan;55403.78;5052180;28;20218;-61
2023/09/25 05:56:44;;;;;;;1.20;1.10;;;;;;;20.53;nan;55806.50;5050920;28;20218;-59
2023/09/25 05:59:10;;;;;;;1.42;1.23;;;;;;;20.44;nan;55423.59;5030901;28;20202;-61
2023/09/25 06:01:35;;;;;;;2.40;1.38;;;;;;;20.79;nan;56182.97;5031751;28;20179;-61
2023/09/25 06:04:01;;;;;;;1.80;1.67;;;;;;;20.50;nan;56030.94;5031090;28;21014;-60
2023/09/25 06:06:26;;;;;;;1.77;1.08;;;;;;;20.71;nan;57020.38;5031637;28;20167;-61
2023/09/25 06:08:52;;;;;;;1.30;1.13;;;;;;;20.88;nan;57310.16;5031958;28;20596;-61
2023/09/25 06:11:17;;;;;;;1.17;1.08;;;;;;;20.98;nan;57907.16;5031622;28;20163;-61
2023/09/25 06:13:43;;;;;;;1.20;1.10;;;;;;;21.04;nan;57728.81;5031641;28;20172;-60
2023/09/25 06:16:09;;;;;;;2.28;1.27;;;;;;;21.07;nan;59344.47;5032068;28;20172;-61
2023/09/25 06:18:36;;;;;;;1.00;0.98;;;;;;;21.35;nan;59735.66;5030847;28;20182;-61
2023/09/25 06:21:02;;;;;;;2.33;1.33;;;;;;;21.37;nan;60392.03;5032381;28;20225;-62
2023/09/25 06:23:27;;;;;;;2.83;1.55;;;;;;;21.33;nan;60476.50;5031706;28;20534;-61
2023/09/25 06:25:53;;;;;;;1.20;1.10;;;;;;;21.19;nan;60577.25;5030461;28;20184;-60
2023/09/25 06:28:23;;;;;;;1.75;1.02;;;;;;;21.30;nan;60592.09;5032000;28;20182;-60
2023/09/25 06:30:49;;;;;;;1.23;1.13;;;;;;;21.45;nan;60595.84;5032116;28;20233;-61
2023/09/25 06:33:14;;;;;;;1.40;1.30;;;;;;;21.63;nan;60799.94;5032212;28;20176;-61
2023/09/25 06:35:39;;;;;;;1.20;1.10;;;;;;;21.73;nan;60954.72;5031604;28;20237;-61
2023/09/25 06:38:05;;;;;;;1.90;1.33;;;;;;;22.00;nan;61228.97;5031409;28;20167;-61
2023/09/25 06:40:30;;;;;;;1.20;1.10;;;;;;;22.34;nan;61436.44;5031483;28;20203;-60
2023/09/25 06:42:55;;;;;;;1.45;1.25;;;;;;;22.56;nan;61533.06;5031124;28;20674;-60
2023/09/25 06:45:21;;;;;;;1.40;1.30;;;;;;;22.52;nan;61557.75;5031209;28;20267;-61
2023/09/25 06:47:47;;;;;;;0.90;0.90;;;;;;;22.82;nan;61729.78;5033113;28;20322;-60
2023/09/25 06:50:12;;;;;;;1.38;1.20;;;;;;;22.70;nan;61690.16;5035493;28;20176;-62
2023/09/25 06:52:40;;;;;;;1.40;1.30;;;;;;;23.01;nan;61855.00;5035483;28;20224;-63
2023/09/25 06:55:06;;;;;;;2.28;1.60;;;;;;;23.00;nan;61868.94;5035155;28;20179;-62
2023/09/25 06:57:31;;;;;;;1.23;1.00;;;;;;;23.15;nan;61812.97;5035105;28;20643;-62
2023/09/25 06:59:58;;;;;;;2.00;1.80;;;;;;;23.10;nan;61899.13;5034950;28;20256;-60
2023/09/25 07:02:25;;;;;;;2.33;1.40;;;;;;;23.28;nan;61879.88;5035255;28;20202;-61
2023/09/25 07:04:50;;;;;;;1.48;1.08;;;;;;;23.58;nan;62101.78;5035140;28;20175;-61
2023/09/25 07:07:15;;;;;;;1.30;1.20;;;;;;;23.53;nan;62247.44;5035133;28;20183;-60
2023/09/25 07:09:41;;;;;;;1.48;1.27;;;;;;;23.78;nan;62009.75;5035037;28;20602;-62
2023/09/25 07:12:06;;;;;;;1.50;1.40;;;;;;;24.24;nan;62181.09;5033610;28;20167;-60
2023/09/25 07:14:32;;;;;;;3.60;1.27;;;;;;;23.99;nan;62134.91;5035656;28;20179;-62
2023/09/25 07:16:57;;;;;;;1.40;1.23;;;;;;;23.41;nan;61993.75;5035235;28;20768;-60
2023/09/25 07:19:23;;;;;;;1.45;1.10;;;;;;;23.81;nan;62054.38;5034977;28;20159;-61
2023/09/25 07:21:49;;;;;;;1.40;1.05;;;;;;;24.06;nan;62199.72;5035192;28;20172;-61
2023/09/25 07:24:14;;;;;;;1.75;1.30;;;;;;;24.08;nan;62102.78;5034934;28;20689;-60
2023/09/25 07:26:39;;;;;;;2.25;1.50;;;;;;;24.37;nan;62158.78;5034394;28;20168;-60
2023/09/25 07:29:05;;;;;;;1.33;1.20;;;;;;;24.36;nan;62147.19;5034603;28;20171;-60
2023/09/25 07:31:30;;;;;;;4.15;1.75;;;;;;;24.35;nan;62167.53;5035015;28;20171;-60
2023/09/25 07:33:58;;;;;;;2.17;1.25;;;;;;;24.53;nan;62218.81;5034617;28;20205;-60
2023/09/25 07:36:24;;;;;;;1.52;1.10;;;;;;;24.40;nan;62081.78;5034797;28;20685;-60
2023/09/25 07:38:50;;;;;;;1.33;1.20;;;;;;;24.35;nan;62114.72;5034728;28;20551;-61
2023/09/25 07:41:16;;;;;;;1.10;1.00;;;;;;;24.45;nan;62121.44;5034647;28;20187;-60
2023/09/25 07:43:41;;;;;;;1.50;1.40;;;;;;;24.82;nan;62209.50;5034810;28;20386;-61
2023/09/25 07:46:08;;;;;;;1.30;1.20;;;;;;;25.06;nan;62263.59;5034694;28;20175;-60
2023/09/25 07:48:39;;;;;;;1.40;1.30;;;;;;;;;;5034909;28;20182;-62
2023/09/25 07:51:07;;;;;;;1.30;1.10;;;;;;;24.85;nan;62247.47;5034692;28;20192;-61
2023/09/25 07:53:33;;;;;;;1.30;1.20;;;;;;;24.56;nan;62175.19;5034667;28;20537;-61
2023/09/25 07:55:59;;;;;;;1.38;1.27;;;;;;;24.59;nan;62456.22;5034486;28;20300;-63
2023/09/25 07:58:26;;;;;;;1.42;1.30;;;;;;;24.78;nan;62262.44;5033656;28;20187;-61
2023/09/25 08:00:55;;;;;;;1.95;1.48;;;;;;;24.96;nan;62306.53;5033839;28;20175;-61
2023/09/25 08:03:22;;;;;;;2.22;1.30;;;;;;;24.75;nan;62183.22;5034397;28;20760;-60
2023/09/25 08:05:48;;;;;;;1.25;1.10;;;;;;;24.67;nan;62215.91;5034343;28;20623;-61
2023/09/25 08:08:13;;;;;;;1.63;1.27;;;;;;;25.11;nan;62300.09;5032716;28;20654;-61
2023/09/25 08:10:43;;;;;;;1.48;1.17;;;;;;;25.25;nan;62326.53;5034006;28;20194;-61
2023/09/25 08:13:10;;;;;;;2.00;1.75;;;;;;;25.43;nan;62343.94;5034370;28;20203;-61
2023/09/25 08:15:36;;;;;;;1.75;1.30;;;;;;;25.37;nan;62340.25;5034563;28;20642;-60
2023/09/25 08:18:02;;;;;;;1.25;1.15;;;;;;;25.64;nan;62404.00;5034018;28;20168;-61
2023/09/25 08:20:27;;;;;;;2.33;1.75;;;;;;;25.51;nan;62390.25;5034119;28;20533;-61
2023/09/25 08:22:53;;;;;;;1.83;1.30;;;;;;;25.54;nan;62364.34;5033963;28;20235;-61
2023/09/25 08:25:21;;;;;;;1.63;1.08;;;;;;;25.92;nan;62436.00;5033667;28;20179;-61
2023/09/25 08:27:48;;;;;;;1.67;1.13;;;;;;;26.16;nan;62523.13;5034103;28;20171;-62
2023/09/25 08:30:16;;;;;;;2.45;1.58;;;;;;;26.44;nan;62730.22;5034044;28;20293;-61
2023/09/25 08:32:42;;;;;;;1.52;1.33;;;;;;;26.54;nan;62495.84;5033845;28;20156;-62
2023/09/25 08:35:09;;;;;;;2.13;1.55;;;;;;;26.27;nan;62365.94;5033923;28;20171;-60
2023/09/25 08:37:36;;;;;;;1.67;1.20;;;;;;;26.40;nan;62416.94;5033427;28;20167;-61
2023/09/25 08:40:02;;;;;;;1.80;1.13;;;;;;;26.47;nan;62639.88;5033543;28;20615;-62
2023/09/25 08:42:27;;;;;;;2.10;1.52;;;;;;;26.41;nan;62530.75;5033456;28;20285;-63
2023/09/25 08:44:57;;;;;;;1.70;1.50;;;;;;;26.20;nan;62585.91;5033493;28;20171;-61
2023/09/25 08:47:23;;;;;;;1.95;1.48;;;;;;;26.00;nan;62426.78;5033607;28;20167;-60
2023/09/25 08:49:52;;;;;;;2.17;1.50;;;;;;;26.19;nan;62466.84;5033235;28;20194;-61
2023/09/25 08:52:18;;;;;;;1.42;1.20;;;;;;;26.24;nan;62438.53;5033290;28;20179;-61
2023/09/25 08:54:44;;;;;;;1.05;0.95;;;;;;;26.43;nan;62616.38;5033921;28;20212;-61
2023/09/25 08:57:11;;;;;;;1.75;1.40;;;;;;;26.78;nan;62546.88;5033799;28;20227;-61
2023/09/25 08:59:39;;;;;;;1.20;1.10;;;;;;;26.84;nan;62621.38;5033310;28;20186;-61
2023/09/25 09:02:08;;;;;;;1.48;1.30;;;;;;;26.88;nan;62562.44;5033604;28;20194;-60
2023/09/25 09:04:35;;;;;;;4.22;1.48;;;;;;;26.81;nan;62793.69;5033219;28;20210;-61
2023/09/25 09:07:01;;;;;;;1.75;1.23;;;;;;;27.17;nan;62695.38;5031886;28;20170;-61
2023/09/25 09:09:26;;;;;;;1.92;1.77;;;;;;;27.51;nan;62655.03;5032717;28;20269;-61
2023/09/25 09:11:52;;;;;;;1.85;1.50;;;;;;;27.83;nan;62794.16;5032512;28;20647;-61
2023/09/25 09:14:35;;;;;;;1.77;1.38;;;;;;;27.35;nan;62760.63;5032491;28;20183;-63
2023/09/25 09:17:04;;;;;;;1.55;1.30;;;;;;;27.17;nan;62611.97;5032558;28;20224;-63
2023/09/25 09:19:51;;;;;;;1.42;1.33;;;;;;;26.92;nan;62641.03;5032428;28;20179;-61
2023/09/25 09:22:18;;;;;;;2.25;1.50;;;;;;;26.80;nan;62540.72;5032529;28;20163;-61
2023/09/25 09:24:44;;;;;;;3.70;1.58;;;;;;;26.93;nan;62710.41;5032350;28;20176;-61
2023/09/25 09:27:11;;;;;;;2.13;1.88;;;;;;;23.87;nan;64159.75;5032819;28;20178;-61
2023/09/25 09:29:39;;;;;;;2.58;1.55;;;;;;;26.86;nan;62555.50;5032192;28;20623;-61
2023/09/25 09:32:06;;;;;;;1.73;1.40;;;;;;;26.79;nan;62573.69;5032035;28;20175;-62
2023/09/25 09:34:32;;;;;;;2.00;1.35;;;;;;;26.76;nan;62536.16;5031901;28;20237;-62
2023/09/25 09:36:58;;;;;;;3.08;1.50;;;;;;;26.71;nan;62643.78;5030435;28;20626;-61
2023/09/25 09:39:28;;;;;;;2.78;1.98;;;;;;;27.03;nan;62700.88;5031883;28;20179;-61
2023/09/25 09:41:57;;;;;;;2.42;1.67;;;;;;;26.85;nan;62663.91;5031764;28;20187;-61
2023/09/25 09:44:22;;;;;;;2.10;1.48;;;;;;;26.65;nan;62591.75;5031759;28;20191;-60
2023/09/25 09:46:50;;;;;;;3.13;1.90;;;;;;;27.03;nan;62632.66;5031933;28;20171;-61
2023/09/25 09:49:22;;;;;;;1.88;1.63;;;;;;;27.03;nan;62643.16;5031788;28;20191;-60
2023/09/25 09:51:49;;;;;;;3.35;1.67;;;;;;;;;;5031709;28;20194;-62
2023/09/25 09:54:17;;;;;;;1.40;1.30;;;;;;;26.97;nan;62631.03;5031775;28;20211;-61
2023/09/25 09:56:43;;;;;;;3.30;1.95;;;;;;;27.16;nan;62618.69;5031445;28;20254;-62
2023/09/25 09:59:10;;;;;;;2.08;1.45;;;;;;;27.65;nan;62681.56;5031876;28;20182;-61
2023/09/25 10:01:36;;;;;;;2.97;1.63;;;;;;;27.98;nan;62745.66;5031673;28;20289;-60
2023/09/25 10:04:05;;;;;;;3.80;2.30;;;;;;;27.86;nan;62860.06;5031341;28;20577;-61
2023/09/25 10:06:35;;;;;;;2.22;1.40;;;;;;;28.18;nan;62772.72;5031647;28;20170;-63
2023/09/25 10:09:09;;;;;;;1.92;1.30;;;;;;;28.19;nan;62886.91;5029950;28;20661;-62
2023/09/25 10:11:35;;;;;;;2.05;1.42;;;;;;;28.28;nan;62794.72;5031438;28;20185;-61
2023/09/25 10:14:03;;;;;;;3.65;1.65;;;;;;;28.50;nan;62760.03;5031473;28;20178;-61
2023/09/25 10:16:30;;;;;;;2.88;1.50;;;;;;;28.52;nan;62756.50;5031435;28;20183;-61
2023/09/25 10:18:56;;;;;;;1.80;1.20;;;;;;;29.10;nan;62908.75;5031422;28;20269;-61
2023/09/25 10:21:21;;;;;;;2.10;1.60;;;;;;;29.15;nan;62933.50;5031661;28;20652;-60
2023/09/25 10:23:54;;;;;;;2.00;1.33;;;;;;;29.33;nan;62958.88;5030581;28;20198;-61
2023/09/25 10:26:25;;;;;;;1.50;1.40;;;;;;;28.66;nan;62862.00;5031531;28;20179;-61
2023/09/25 10:29:13;;;;;;;1.98;1.30;;;;;;;28.42;nan;62884.41;5031365;28;20202;-63
2023/09/25 10:31:45;;;;;;;2.22;1.75;;;;;;;28.59;nan;62843.41;5031493;28;20163;-61
2023/09/25 10:34:10;;;;;;;1.45;1.30;;;;;;;28.71;nan;62936.16;5030449;28;20187;-61
2023/09/25 10:36:43;;;;;;;2.03;1.55;;;;;;;28.05;nan;62806.25;5037432;28;20174;-62
2023/09/25 10:39:13;;;;;;;1.58;1.30;;;;;;;28.06;nan;62765.34;5041726;28;20191;-61
2023/09/25 10:41:39;;;;;;;2.45;1.50;;;;;;;28.42;nan;62900.75;5031450;28;20681;-61
2023/09/25 10:44:05;;;;;;;1.98;1.48;;;;;;;29.03;nan;62548.00;5046087;28;20272;-61
2023/09/25 10:46:30;;;;;;;1.73;1.40;;;;;;;29.22;nan;63062.09;5050782;28;20181;-61
2023/09/25 10:48:56;;;;;;;1.10;1.00;;;;;;;29.20;nan;62917.59;5051032;28;20181;-60
2023/09/25 10:51:22;;;;;;;2.10;1.42;;;;;;;29.29;nan;62983.25;5050917;28;20308;-61
2023/09/25 10:53:47;;;;;;;2.55;1.60;;;;;;;29.36;nan;63086.69;5050800;28;20710;-62
2023/09/25 10:56:14;;;;;;;2.63;1.67;;;;;;;29.33;nan;62924.66;5050819;28;20217;-60
2023/09/25 10:58:40;;;;;;;1.90;1.40;;;;;;;28.71;nan;62775.66;5051102;28;20166;-61
2023/09/25 11:01:05;;;;;;;1.80;1.40;;;;;;;28.42;nan;62790.31;5050937;28;20284;-62
2023/09/25 11:03:34;;;;;;;1.83;1.48;;;;;;;28.35;nan;62895.34;5033185;28;20705;-61
2023/09/25 11:05:59;;;;;;;1.55;1.42;;;;;;;28.54;nan;62919.22;5037437;28;20183;-61
2023/09/25 11:08:26;;;;;;;2.20;1.60;;;;;;;28.78;nan;62972.56;5030012;28;20248;-61
2023/09/25 11:10:51;;;;;;;1.38;1.27;;;;;;;28.13;nan;62701.84;5032576;28;20218;-61
2023/09/25 11:13:17;;;;;;;2.40;1.50;;;;;;;27.39;nan;62665.44;5043891;28;20650;-60
2023/09/25 11:15:44;;;;;;;2.63;1.80;;;;;;;27.50;nan;62682.75;5037699;28;20174;-61
2023/09/25 11:18:10;;;;;;;2.40;1.65;;;;;;;27.23;nan;62595.22;5029925;28;20174;-61
2023/09/25 11:20:38;;;;;;;2.00;1.70;;;;;;;27.16;nan;62602.34;5045842;28;20621;-62
2023/09/25 11:23:05;;;;;;;2.05;1.55;;;;;;;26.83;nan;62625.47;5029199;28;20207;-62
2023/09/25 11:25:39;;;;;;;1.55;1.30;;;;;;;27.05;nan;62602.91;5030392;28;20329;-61
2023/09/25 11:28:05;;;;;;;1.60;1.38;;;;;;;27.20;nan;62625.88;5035059;28;20171;-61
2023/09/25 11:30:31;;;;;;;2.05;1.48;;;;;;;27.41;nan;62861.47;5035172;28;20187;-60
2023/09/25 11:33:02;;;;;;;2.08;1.33;;;;;;;27.57;nan;62665.09;5028291;28;20329;-60
2023/09/25 11:35:28;;;;;;;3.38;1.40;;;;;;;27.57;nan;62638.25;5036144;28;20182;-63
2023/09/25 11:37:59;;;;;;;2.28;1.27;;;;;;;27.88;nan;62812.44;5035995;28;20186;-61
2023/09/25 11:40:28;;;;;;;2.17;1.55;;;;;;;28.01;nan;62722.81;5037293;28;20641;-62
2023/09/25 11:42:55;;;;;;;2.25;1.60;;;;;;;28.07;nan;62776.41;5033449;28;20598;-61
2023/09/25 11:45:21;;;;;;;1.50;1.17;;;;;;;28.34;nan;62875.78;5033162;28;20199;-60
2023/09/25 11:47:47;;;;;;;1.70;1.40;;;;;;;;;;5040827;28;20204;-60